Main page
METAR-TAF:

METAR-TAF

Airports :

Kerrville Municipal Airport

Kerrville, Texas, United States

latitude: 29-58N, longitude: 099-05W, elevation: 1617 ft

Current weather observation

The report was made 5 minutes ago, at 09:35 UTC
Calm wind
Temperature 73°F
Humidity 89%
Pressure 29.84 in. Hg
Visibility: 5 miles
Overcast at a height of 1200 ft
mist

METAR: KERV 190935Z AUTO 00000KT 5SM BR OVC012 23/21 A2984 RMK AO2 T02260211

Time: 04:40 (09:40 UTC)


TAF: missing

Weather observations and forecasts of more than 4000 airports (METAR and TAF reports).

The available stations are represented by yellow and red dots on the map.

Hover mouse over dot to see the name of the station.

Then click to see weather observations and forecasts.

To change the map : click on the green buttons with a black cross to zoom in, on the green button with a dash to zoom out, or on the green arrows for adjacent maps.


METAR-TAF: